sensor_id;sensor_type;location;lat;lon;timestamp;pressure;altitude;pressure_sealevel;temperature
24714;BMP280;12820;51.580;5.010;2023-04-03T00:01:52;102929.84;;;8.52
24714;BMP280;12820;51.580;5.010;2023-04-03T00:06:55;102930.56;;;8.49
24714;BMP280;12820;51.580;5.010;2023-04-03T00:11:57;102936.28;;;8.45
24714;BMP280;12820;51.580;5.010;2023-04-03T00:16:59;102937.88;;;8.41
24714;BMP280;12820;51.580;5.010;2023-04-03T00:22:02;102946.06;;;8.36
24714;BMP280;12820;51.580;5.010;2023-04-03T00:27:04;102947.59;;;8.31
24714;BMP280;12820;51.580;5.010;2023-04-03T00:32:06;102949.22;;;8.29
24714;BMP280;12820;51.580;5.010;2023-04-03T00:37:08;102949.06;;;8.23
24714;BMP280;12820;51.580;5.010;2023-04-03T00:42:10;102953.94;;;8.19
24714;BMP280;12820;51.580;5.010;2023-04-03T00:47:16;102956.38;;;8.17
24714;BMP280;12820;51.580;5.010;2023-04-03T00:52:21;102952.94;;;8.14
24714;BMP280;12820;51.580;5.010;2023-04-03T00:57:25;102967.88;;;8.11
24714;BMP280;12820;51.580;5.010;2023-04-03T01:02:27;102972.72;;;8.05
24714;BMP280;12820;51.580;5.010;2023-04-03T01:07:30;102965.88;;;8.00
24714;BMP280;12820;51.580;5.010;2023-04-03T01:12:35;102970.00;;;7.98
24714;BMP280;12820;51.580;5.010;2023-04-03T01:17:48;102968.16;;;7.94
24714;BMP280;12820;51.580;5.010;2023-04-03T01:28:07;102965.34;;;7.84
24714;BMP280;12820;51.580;5.010;2023-04-03T01:33:09;102966.00;;;7.79
24714;BMP280;12820;51.580;5.010;2023-04-03T01:38:12;102965.94;;;7.76
24714;BMP280;12820;51.580;5.010;2023-04-03T01:43:14;102975.81;;;7.71
24714;BMP280;12820;51.580;5.010;2023-04-03T01:48:16;102974.88;;;7.68
24714;BMP280;12820;51.580;5.010;2023-04-03T01:53:18;102974.72;;;7.63
24714;BMP280;12820;51.580;5.010;2023-04-03T01:58:20;102980.47;;;7.61
24714;BMP280;12820;51.580;5.010;2023-04-03T02:03:24;102978.63;;;7.56
24714;BMP280;12820;51.580;5.010;2023-04-03T02:08:27;102974.34;;;7.52
24714;BMP280;12820;51.580;5.010;2023-04-03T02:13:29;102977.56;;;7.49
24714;BMP280;12820;51.580;5.010;2023-04-03T02:18:32;102977.41;;;7.44
24714;BMP280;12820;51.580;5.010;2023-04-03T02:23:34;102984.81;;;7.41
24714;BMP280;12820;51.580;5.010;2023-04-03T02:28:39;102991.31;;;7.36
24714;BMP280;12820;51.580;5.010;2023-04-03T02:33:41;102991.16;;;7.31
24714;BMP280;12820;51.580;5.010;2023-04-03T02:38:45;102996.88;;;7.27
24714;BMP280;12820;51.580;5.010;2023-04-03T02:43:48;102999.22;;;7.23
24714;BMP280;12820;51.580;5.010;2023-04-03T02:48:51;103001.53;;;7.17
24714;BMP280;12820;51.580;5.010;2023-04-03T02:53:54;102993.94;;;7.14
24714;BMP280;12820;51.580;5.010;2023-04-03T02:59:00;102997.13;;;7.10
24714;BMP280;12820;51.580;5.010;2023-04-03T03:04:03;102992.78;;;7.05
24714;BMP280;12820;51.580;5.010;2023-04-03T03:09:06;102993.41;;;7.00
24714;BMP280;12820;51.580;5.010;2023-04-03T03:14:08;102996.63;;;6.96
24714;BMP280;12820;51.580;5.010;2023-04-03T03:19:10;103001.50;;;6.93
24714;BMP280;12820;51.580;5.010;2023-04-03T03:24:12;103005.50;;;6.88
24714;BMP280;12820;51.580;5.010;2023-04-03T03:29:14;103009.47;;;6.83
24714;BMP280;12820;51.580;5.010;2023-04-03T03:34:17;103002.69;;;6.79
24714;BMP280;12820;51.580;5.010;2023-04-03T03:39:20;103007.59;;;6.76
24714;BMP280;12820;51.580;5.010;2023-04-03T03:44:22;103019.06;;;6.72
24714;BMP280;12820;51.580;5.010;2023-04-03T03:49:27;103025.66;;;6.70
24714;BMP280;12820;51.580;5.010;2023-04-03T03:54:29;103030.47;;;6.64
24714;BMP280;12820;51.580;5.010;2023-04-03T03:59:32;103029.47;;;6.60
24714;BMP280;12820;51.580;5.010;2023-04-03T04:04:36;103025.09;;;6.55
24714;BMP280;12820;51.580;5.010;2023-04-03T04:09:39;103029.94;;;6.51
24714;BMP280;12820;51.580;5.010;2023-04-03T04:14:43;103033.13;;;6.47
24714;BMP280;12820;51.580;5.010;2023-04-03T04:19:50;103032.25;;;6.45
24714;BMP280;12820;51.580;5.010;2023-04-03T04:24:52;103037.16;;;6.43
24714;BMP280;12820;51.580;5.010;2023-04-03T04:29:54;103033.72;;;6.40
24714;BMP280;12820;51.580;5.010;2023-04-03T04:34:58;103037.69;;;6.35
24714;BMP280;12820;51.580;5.010;2023-04-03T04:40:02;103040.91;;;6.33
24714;BMP280;12820;51.580;5.010;2023-04-03T04:45:05;103034.97;;;6.29
24714;BMP280;12820;51.580;5.010;2023-04-03T04:50:08;103029.00;;;6.26
24714;BMP280;12820;51.580;5.010;2023-04-03T04:55:11;103042.97;;;6.21
24714;BMP280;12820;51.580;5.010;2023-04-03T05:00:14;103055.31;;;6.18
24714;BMP280;12820;51.580;5.010;2023-04-03T05:05:17;103058.50;;;6.14
24714;BMP280;12820;51.580;5.010;2023-04-03T05:10:19;103061.78;;;6.13
24714;BMP280;12820;51.580;5.010;2023-04-03T05:15:22;103068.41;;;6.11
24714;BMP280;12820;51.580;5.010;2023-04-03T05:20:24;103070.81;;;6.10
24714;BMP280;12820;51.580;5.010;2023-04-03T05:25:27;103078.13;;;6.05
24714;BMP280;12820;51.580;5.010;2023-04-03T05:30:31;103078.84;;;6.03
24714;BMP280;12820;51.580;5.010;2023-04-03T05:35:36;103078.00;;;6.03
24714;BMP280;12820;51.580;5.010;2023-04-03T05:40:43;103077.19;;;6.02
24714;BMP280;12820;51.580;5.010;2023-04-03T05:45:47;103081.41;;;6.04
24714;BMP280;12820;51.580;5.010;2023-04-03T05:50:50;103092.34;;;6.06
24714;BMP280;12820;51.580;5.010;2023-04-03T05:55:57;103094.06;;;6.09
24714;BMP280;12820;51.580;5.010;2023-04-03T06:01:00;103093.22;;;6.08
24714;BMP280;12820;51.580;5.010;2023-04-03T06:06:04;103092.53;;;6.12
24714;BMP280;12820;51.580;5.010;2023-04-03T06:11:07;103106.06;;;6.17
24714;BMP280;12820;51.580;5.010;2023-04-03T06:16:12;103100.28;;;6.18
24714;BMP280;12820;51.580;5.010;2023-04-03T06:21:17;103101.38;;;6.24
24714;BMP280;12820;51.580;5.010;2023-04-03T06:26:19;103096.53;;;6.29
24714;BMP280;12820;51.580;5.010;2023-04-03T06:31:22;103109.28;;;6.35
24714;BMP280;12820;51.580;5.010;2023-04-03T06:36:25;103111.19;;;6.41
24714;BMP280;12820;51.580;5.010;2023-04-03T06:41:27;103118.13;;;6.48
24714;BMP280;12820;51.580;5.010;2023-04-03T06:46:29;103113.41;;;6.56
24714;BMP280;12820;51.580;5.010;2023-04-03T06:51:32;103124.50;;;6.62
24714;BMP280;12820;51.580;5.010;2023-04-03T06:56:35;103136.31;;;6.66
24714;BMP280;12820;51.580;5.010;2023-04-03T07:01:37;103123.94;;;6.69
24714;BMP280;12820;51.580;5.010;2023-04-03T07:06:39;103124.03;;;6.72
24714;BMP280;12820;51.580;5.010;2023-04-03T07:11:42;103128.34;;;6.75
24714;BMP280;12820;51.580;5.010;2023-04-03T07:16:44;103131.78;;;6.77
24714;BMP280;12820;51.580;5.010;2023-04-03T07:21:46;103139.38;;;6.80
24714;BMP280;12820;51.580;5.010;2023-04-03T07:26:50;103129.47;;;6.83
24714;BMP280;12820;51.580;5.010;2023-04-03T07:31:52;103134.69;;;6.89
24714;BMP280;12820;51.580;5.010;2023-04-03T07:36:55;103134.00;;;6.93
24714;BMP280;12820;51.580;5.010;2023-04-03T07:41:57;103146.66;;;6.97
24714;BMP280;12820;51.580;5.010;2023-04-03T07:46:59;103143.59;;;7.04
24714;BMP280;12820;51.580;5.010;2023-04-03T07:52:01;103142.97;;;7.09
24714;BMP280;12820;51.580;5.010;2023-04-03T07:57:06;103139.84;;;7.15
24714;BMP280;12820;51.580;5.010;2023-04-03T08:02:09;103145.78;;;7.18
24714;BMP280;12820;51.580;5.010;2023-04-03T08:07:12;103158.63;;;7.27
24714;BMP280;12820;51.580;5.010;2023-04-03T08:12:14;103157.13;;;7.32
24714;BMP280;12820;51.580;5.010;2023-04-03T08:17:16;103155.69;;;7.38
24714;BMP280;12820;51.580;5.010;2023-04-03T08:22:18;103153.44;;;7.45
24714;BMP280;12820;51.580;5.010;2023-04-03T08:27:21;103160.44;;;7.54
24714;BMP280;12820;51.580;5.010;2023-04-03T08:32:23;103157.38;;;7.62
24714;BMP280;12820;51.580;5.010;2023-04-03T08:37:26;103160.97;;;7.70
24714;BMP280;12820;51.580;5.010;2023-04-03T08:42:55;103163.75;;;7.77
24714;BMP280;12820;51.580;5.010;2023-04-03T08:48:10;103162.44;;;7.88
24714;BMP280;12820;51.580;5.010;2023-04-03T08:53:16;103170.34;;;7.98
24714;BMP280;12820;51.580;5.010;2023-04-03T08:58:25;103173.13;;;8.07
24714;BMP280;12820;51.580;5.010;2023-04-03T09:03:30;103181.78;;;8.16
24714;BMP280;12820;51.580;5.010;2023-04-03T09:08:38;103182.09;;;8.25
24714;BMP280;12820;51.580;5.010;2023-04-03T09:24:17;103160.56;;;8.57
24714;BMP280;12820;51.580;5.010;2023-04-03T09:29:24;103155.88;;;8.67
24714;BMP280;12820;51.580;5.010;2023-04-03T09:34:36;103145.34;;;8.78
24714;BMP280;12820;51.580;5.010;2023-04-03T09:39:53;103138.13;;;8.88
24714;BMP280;12820;51.580;5.010;2023-04-03T09:44:59;103145.97;;;8.99
24714;BMP280;12820;51.580;5.010;2023-04-03T09:50:18;103137.09;;;9.09
24714;BMP280;12820;51.580;5.010;2023-04-03T09:55:23;103136.53;;;9.21
24714;BMP280;12820;51.580;5.010;2023-04-03T10:00:37;103130.16;;;9.31
24714;BMP280;12820;51.580;5.010;2023-04-03T10:05:41;103124.63;;;9.42
24714;BMP280;12820;51.580;5.010;2023-04-03T10:10:48;103125.78;;;9.55
24714;BMP280;12820;51.580;5.010;2023-04-03T10:15:56;103116.91;;;9.67
24714;BMP280;12820;51.580;5.010;2023-04-03T10:21:05;103123.16;;;9.82
24714;BMP280;12820;51.580;5.010;2023-04-03T10:32:20;103103.28;;;10.61
24714;BMP280;12820;51.580;5.010;2023-04-03T10:37:48;103093.97;;;11.87
24714;BMP280;12820;51.580;5.010;2023-04-03T10:43:06;103079.41;;;13.60
24714;BMP280;12820;51.580;5.010;2023-04-03T10:59:04;103048.00;;;25.60
24714;BMP280;12820;51.580;5.010;2023-04-03T11:04:09;103028.22;;;27.45
24714;BMP280;12820;51.580;5.010;2023-04-03T11:09:28;103015.75;;;28.95
24714;BMP280;12820;51.580;5.010;2023-04-03T11:14:32;103003.50;;;30.12
24714;BMP280;12820;51.580;5.010;2023-04-03T11:41:31;102981.22;;;31.90
24714;BMP280;12820;51.580;5.010;2023-04-03T11:46:51;102970.13;;;31.00
24714;BMP280;12820;51.580;5.010;2023-04-03T11:51:57;102960.91;;;30.43
24714;BMP280;12820;51.580;5.010;2023-04-03T11:56:59;102958.41;;;30.14
24714;BMP280;12820;51.580;5.010;2023-04-03T12:02:02;102965.63;;;29.82
24714;BMP280;12820;51.580;5.010;2023-04-03T12:07:16;102956.22;;;29.53
24714;BMP280;12820;51.580;5.010;2023-04-03T12:12:36;102946.28;;;29.17
24714;BMP280;12820;51.580;5.010;2023-04-03T12:17:38;102957.03;;;28.81
24714;BMP280;12820;51.580;5.010;2023-04-03T12:23:08;102941.97;;;28.42
24714;BMP280;12820;51.580;5.010;2023-04-03T12:28:25;102935.75;;;27.00
24714;BMP280;12820;51.580;5.010;2023-04-03T12:39:06;102920.97;;;24.13
24714;BMP280;12820;51.580;5.010;2023-04-03T12:44:22;102939.97;;;23.61
24714;BMP280;12820;51.580;5.010;2023-04-03T12:54:38;102910.81;;;25.94
24714;BMP280;12820;51.580;5.010;2023-04-03T12:59:44;102900.38;;;27.51
24714;BMP280;12820;51.580;5.010;2023-04-03T13:04:48;102892.03;;;28.85
24714;BMP280;12820;51.580;5.010;2023-04-03T13:15:26;102867.34;;;31.33
24714;BMP280;12820;51.580;5.010;2023-04-03T13:20:32;102864.84;;;32.39
24714;BMP280;12820;51.580;5.010;2023-04-03T13:25:40;102866.31;;;33.44
24714;BMP280;12820;51.580;5.010;2023-04-03T13:41:25;102852.34;;;35.10
24714;BMP280;12820;51.580;5.010;2023-04-03T13:46:27;102848.78;;;35.31
24714;BMP280;12820;51.580;5.010;2023-04-03T13:51:30;102843.28;;;35.63
24714;BMP280;12820;51.580;5.010;2023-04-03T13:56:37;102848.38;;;35.94
24714;BMP280;12820;51.580;5.010;2023-04-03T14:01:45;102826.66;;;36.12
24714;BMP280;12820;51.580;5.010;2023-04-03T14:06:48;102825.44;;;36.25
24714;BMP280;12820;51.580;5.010;2023-04-03T14:11:54;102822.56;;;36.37
24714;BMP280;12820;51.580;5.010;2023-04-03T14:17:00;102821.31;;;36.69
24714;BMP280;12820;51.580;5.010;2023-04-03T14:22:14;102809.66;;;38.06
24714;BMP280;12820;51.580;5.010;2023-04-03T14:27:23;102825.38;;;38.49
24714;BMP280;12820;51.580;5.010;2023-04-03T14:32:27;102809.53;;;37.81
24714;BMP280;12820;51.580;5.010;2023-04-03T14:37:30;102808.34;;;37.31
24714;BMP280;12820;51.580;5.010;2023-04-03T14:42:35;102814.28;;;36.42
24714;BMP280;12820;51.580;5.010;2023-04-03T14:47:58;102805.06;;;36.19
24714;BMP280;12820;51.580;5.010;2023-04-03T14:53:01;102786.91;;;35.89
24714;BMP280;12820;51.580;5.010;2023-04-03T14:58:04;102797.66;;;35.47
24714;BMP280;12820;51.580;5.010;2023-04-03T15:03:12;102792.75;;;34.84
24714;BMP280;12820;51.580;5.010;2023-04-03T15:08:22;102791.94;;;34.23
24714;BMP280;12820;51.580;5.010;2023-04-03T15:13:25;102790.72;;;33.64
24714;BMP280;12820;51.580;5.010;2023-04-03T15:18:36;102789.63;;;33.02
24714;BMP280;12820;51.580;5.010;2023-04-03T15:23:39;102774.00;;;32.35
24714;BMP280;12820;51.580;5.010;2023-04-03T15:28:42;102781.41;;;31.71
24714;BMP280;12820;51.580;5.010;2023-04-03T15:33:45;102790.38;;;30.82
24714;BMP280;12820;51.580;5.010;2023-04-03T15:38:47;102781.59;;;30.32
24714;BMP280;12820;51.580;5.010;2023-04-03T15:43:49;102775.88;;;30.02
24714;BMP280;12820;51.580;5.010;2023-04-03T15:48:52;102773.22;;;29.76
24714;BMP280;12820;51.580;5.010;2023-04-03T15:53:54;102778.81;;;29.43
24714;BMP280;12820;51.580;5.010;2023-04-03T15:58:56;102776.19;;;29.02
24714;BMP280;12820;51.580;5.010;2023-04-03T16:03:58;102782.13;;;28.75
24714;BMP280;12820;51.580;5.010;2023-04-03T16:09:00;102787.97;;;28.50
24714;BMP280;12820;51.580;5.010;2023-04-03T16:14:03;102780.19;;;28.21
24714;BMP280;12820;51.580;5.010;2023-04-03T16:19:05;102780.75;;;27.96
24714;BMP280;12820;51.580;5.010;2023-04-03T16:24:08;102791.56;;;27.72
24714;BMP280;12820;51.580;5.010;2023-04-03T16:29:10;102785.66;;;27.39
24714;BMP280;12820;51.580;5.010;2023-04-03T16:34:12;102785.88;;;27.03
24714;BMP280;12820;51.580;5.010;2023-04-03T16:39:15;102794.16;;;26.59
24714;BMP280;12820;51.580;5.010;2023-04-03T16:44:18;102798.41;;;25.90
24714;BMP280;12820;51.580;5.010;2023-04-03T16:49:20;102800.97;;;24.95
24714;BMP280;12820;51.580;5.010;2023-04-03T16:54:22;102806.78;;;23.97
24714;BMP280;12820;51.580;5.010;2023-04-03T16:59:25;102808.44;;;23.06
24714;BMP280;12820;51.580;5.010;2023-04-03T17:04:27;102810.44;;;22.21
24714;BMP280;12820;51.580;5.010;2023-04-03T17:09:29;102802.41;;;21.46
24714;BMP280;12820;51.580;5.010;2023-04-03T17:14:32;102812.25;;;20.66
24714;BMP280;12820;51.580;5.010;2023-04-03T17:19:35;102814.81;;;19.92
24714;BMP280;12820;51.580;5.010;2023-04-03T17:24:38;102817.81;;;19.27
24714;BMP280;12820;51.580;5.010;2023-04-03T17:29:41;102825.59;;;18.73
24714;BMP280;12820;51.580;5.010;2023-04-03T17:34:45;102824.78;;;18.14
24714;BMP280;12820;51.580;5.010;2023-04-03T17:39:48;102829.66;;;17.62
24714;BMP280;12820;51.580;5.010;2023-04-03T17:44:50;102830.97;;;17.19
24714;BMP280;12820;51.580;5.010;2023-04-03T17:49:52;102837.25;;;16.78
24714;BMP280;12820;51.580;5.010;2023-04-03T17:54:54;102843.47;;;16.39
24714;BMP280;12820;51.580;5.010;2023-04-03T17:59:57;102854.66;;;16.03
24714;BMP280;12820;51.580;5.010;2023-04-03T18:04:59;102850.53;;;15.70
24714;BMP280;12820;51.580;5.010;2023-04-03T18:10:02;102847.28;;;15.36
24714;BMP280;12820;51.580;5.010;2023-04-03T18:15:10;102848.16;;;15.06
24714;BMP280;12820;51.580;5.010;2023-04-03T18:20:12;102848.13;;;14.77
24714;BMP280;12820;51.580;5.010;2023-04-03T18:25:16;102848.09;;;14.49
24714;BMP280;12820;51.580;5.010;2023-04-03T18:30:18;102850.56;;;14.24
24714;BMP280;12820;51.580;5.010;2023-04-03T18:35:21;102854.72;;;14.02
24714;BMP280;12820;51.580;5.010;2023-04-03T18:40:23;102860.50;;;13.81
24714;BMP280;12820;51.580;5.010;2023-04-03T18:45:25;102863.75;;;13.59
24714;BMP280;12820;51.580;5.010;2023-04-03T18:50:28;102874.56;;;13.38
24714;BMP280;12820;51.580;5.010;2023-04-03T18:55:30;102884.53;;;13.20
24714;BMP280;12820;51.580;5.010;2023-04-03T19:00:33;102879.34;;;13.01
24714;BMP280;12820;51.580;5.010;2023-04-03T19:05:36;102876.69;;;12.84
24714;BMP280;12820;51.580;5.010;2023-04-03T19:10:38;102884.06;;;12.65
24714;BMP280;12820;51.580;5.010;2023-04-03T19:15:40;102884.72;;;12.51
24714;BMP280;12820;51.580;5.010;2023-04-03T19:20:43;102882.88;;;12.35
24714;BMP280;12820;51.580;5.010;2023-04-03T19:25:45;102882.75;;;12.22
24714;BMP280;12820;51.580;5.010;2023-04-03T19:30:47;102886.78;;;12.08
24714;BMP280;12820;51.580;5.010;2023-04-03T19:35:49;102884.09;;;11.97
24714;BMP280;12820;51.580;5.010;2023-04-03T19:40:51;102886.47;;;11.85
24714;BMP280;12820;51.580;5.010;2023-04-03T19:45:54;102891.34;;;11.73
24714;BMP280;12820;51.580;5.010;2023-04-03T19:50:56;102892.06;;;11.64
24714;BMP280;12820;51.580;5.010;2023-04-03T19:55:59;102882.66;;;11.51
24714;BMP280;12820;51.580;5.010;2023-04-03T20:01:01;102891.72;;;11.40
24714;BMP280;12820;51.580;5.010;2023-04-03T20:06:03;102889.91;;;11.32
24714;BMP280;12820;51.580;5.010;2023-04-03T20:11:06;102887.16;;;11.19
24714;BMP280;12820;51.580;5.010;2023-04-03T20:16:08;102897.06;;;11.10
24714;BMP280;12820;51.580;5.010;2023-04-03T20:21:11;102899.44;;;11.01
24714;BMP280;12820;51.580;5.010;2023-04-03T20:26:22;102902.63;;;10.92
24714;BMP280;12820;51.580;5.010;2023-04-03T20:31:26;102898.25;;;10.82
24714;BMP280;12820;51.580;5.010;2023-04-03T20:36:29;102890.59;;;10.75
24714;BMP280;12820;51.580;5.010;2023-04-03T20:41:32;102897.09;;;10.64
24714;BMP280;12820;51.580;5.010;2023-04-03T20:46:36;102905.34;;;10.56
24714;BMP280;12820;51.580;5.010;2023-04-03T20:51:53;102905.19;;;10.48
24714;BMP280;12820;51.580;5.010;2023-04-03T20:56:55;102908.34;;;10.39
24714;BMP280;12820;51.580;5.010;2023-04-03T21:01:57;102915.75;;;10.31
24714;BMP280;12820;51.580;5.010;2023-04-03T21:23:50;102923.44;;;9.98
24714;BMP280;12820;51.580;5.010;2023-04-03T21:28:53;102904.81;;;9.89
24714;BMP280;12820;51.580;5.010;2023-04-03T21:33:55;102915.53;;;9.82
24714;BMP280;12820;51.580;5.010;2023-04-03T21:38:57;102903.66;;;9.76
24714;BMP280;12820;51.580;5.010;2023-04-03T21:43:59;102892.56;;;9.66
24714;BMP280;12820;51.580;5.010;2023-04-03T21:49:02;102887.41;;;9.60
24714;BMP280;12820;51.580;5.010;2023-04-03T21:54:04;102884.75;;;9.53
24714;BMP280;12820;51.580;5.010;2023-04-03T21:59:06;102897.09;;;9.46
24714;BMP280;12820;51.580;5.010;2023-04-03T22:04:09;102891.09;;;9.40
24714;BMP280;12820;51.580;5.010;2023-04-03T22:09:11;102903.53;;;9.35
24714;BMP280;12820;51.580;5.010;2023-04-03T22:14:14;102903.41;;;9.29
24714;BMP280;12820;51.580;5.010;2023-04-03T22:19:16;102898.16;;;9.21
24714;BMP280;12820;51.580;5.010;2023-04-03T22:24:18;102895.53;;;9.15
24714;BMP280;12820;51.580;5.010;2023-04-03T22:29:21;102901.25;;;9.09
24714;BMP280;12820;51.580;5.010;2023-04-03T22:34:23;102909.47;;;9.04
24714;BMP280;12820;51.580;5.010;2023-04-03T22:39:25;102899.25;;;8.97
24714;BMP280;12820;51.580;5.010;2023-04-03T22:44:27;102895.75;;;8.90
24714;BMP280;12820;51.580;5.010;2023-04-03T22:49:37;102894.69;;;8.83
24714;BMP280;12820;51.580;5.010;2023-04-03T22:54:40;102892.81;;;8.74
24714;BMP280;12820;51.580;5.010;2023-04-03T22:59:42;102896.00;;;8.68
24714;BMP280;12820;51.580;5.010;2023-04-03T23:04:44;102888.31;;;8.62
24714;BMP280;12820;51.580;5.010;2023-04-03T23:09:47;102893.13;;;8.54
24714;BMP280;12820;51.580;5.010;2023-04-03T23:14:49;102881.25;;;8.48
24714;BMP280;12820;51.580;5.010;2023-04-03T23:19:51;102879.44;;;8.42
24714;BMP280;12820;51.580;5.010;2023-04-03T23:24:53;102878.50;;;8.39
24714;BMP280;12820;51.580;5.010;2023-04-03T23:29:55;102872.44;;;8.31
24714;BMP280;12820;51.580;5.010;2023-04-03T23:34:57;102873.97;;;8.26
24714;BMP280;12820;51.580;5.010;2023-04-03T23:40:00;102878.84;;;8.20
24714;BMP280;12820;51.580;5.010;2023-04-03T23:45:03;102869.44;;;8.14
24714;BMP280;12820;51.580;5.010;2023-04-03T23:50:05;102873.47;;;8.09
24714;BMP280;12820;51.580;5.010;2023-04-03T23:55:08;102878.38;;;8.04
